createdAt,value
2019-04-16T00:00:22.646Z,0
2019-04-16T00:01:24.771Z,0
2019-04-16T00:02:26.891Z,0
2019-04-16T00:03:29.005Z,0
2019-04-16T00:04:31.428Z,0
2019-04-16T00:05:33.531Z,0
2019-04-16T00:06:35.640Z,0
2019-04-16T00:07:37.757Z,0
2019-04-16T00:08:39.885Z,0
2019-04-16T00:09:41.989Z,0
2019-04-16T00:10:44.382Z,0
2019-04-16T00:11:46.804Z,0
2019-04-16T00:12:48.913Z,0
2019-04-16T00:13:51.044Z,0
2019-04-16T00:14:53.177Z,0
2019-04-16T00:15:55.640Z,0
2019-04-16T00:16:58.063Z,0
2019-04-16T00:18:00.354Z,0
2019-04-16T00:19:07.927Z,0
2019-04-16T00:20:10.049Z,0
2019-04-16T00:21:12.568Z,0
2019-04-16T00:22:14.668Z,0
2019-04-16T00:23:17.076Z,0
2019-04-16T00:24:21.004Z,0
2019-04-16T00:25:23.128Z,0
2019-04-16T00:26:28.693Z,0
2019-04-16T00:27:31.099Z,0
2019-04-16T00:28:33.621Z,0
2019-04-16T00:29:36.004Z,0
2019-04-16T00:30:38.512Z,0
2019-04-16T00:31:40.620Z,0
2019-04-16T00:32:44.305Z,0
2019-04-16T00:33:46.409Z,0
2019-04-16T00:34:48.816Z,0
2019-04-16T00:35:50.936Z,0
2019-04-16T00:36:53.035Z,0
2019-04-16T00:37:55.398Z,0
2019-04-16T00:38:57.691Z,0
2019-04-16T00:40:00.306Z,0
2019-04-16T00:41:04.360Z,0
2019-04-16T00:42:06.597Z,0
2019-04-16T00:43:08.741Z,0
2019-04-16T00:44:10.856Z,0
2019-04-16T00:45:12.982Z,0
2019-04-16T00:46:15.089Z,0
2019-04-16T00:47:17.206Z,0
2019-04-16T00:48:19.316Z,0
2019-04-16T00:49:26.237Z,0
2019-04-16T00:50:28.603Z,0
2019-04-16T00:51:30.720Z,0
2019-04-16T00:52:38.551Z,0
2019-04-16T00:53:41.074Z,0
2019-04-16T00:54:44.714Z,0
2019-04-16T00:55:47.443Z,0
2019-04-16T00:56:49.560Z,0
2019-04-16T00:57:51.686Z,0
2019-04-16T00:58:54.826Z,0
2019-04-16T00:59:58.259Z,0
2019-04-16T01:01:00.492Z,0
2019-04-16T01:02:02.985Z,0
2019-04-16T01:03:05.784Z,0
2019-04-16T01:04:08.345Z,0
2019-04-16T01:05:10.763Z,0
2019-04-16T01:06:12.865Z,0
2019-04-16T01:07:15.001Z,0
2019-04-16T01:08:17.576Z,0
2019-04-16T01:09:19.697Z,0
2019-04-16T01:10:21.861Z,0
2019-04-16T01:11:24.255Z,0
2019-04-16T01:12:26.386Z,0
2019-04-16T01:13:28.495Z,0
2019-04-16T01:14:30.613Z,0
2019-04-16T01:15:33.930Z,0
2019-04-16T01:16:36.330Z,0
2019-04-16T01:17:38.738Z,0
2019-04-16T01:18:40.839Z,0
2019-04-16T01:19:43.268Z,0
2019-04-16T01:20:45.384Z,0
2019-04-16T01:21:47.495Z,0
2019-04-16T01:22:49.611Z,0
2019-04-16T01:23:52.103Z,0
2019-04-16T01:24:54.205Z,0
2019-04-16T01:25:57.884Z,0
2019-04-16T01:27:00.831Z,0
2019-04-16T01:28:03.020Z,0
2019-04-16T01:29:05.672Z,0
2019-04-16T01:30:08.307Z,0
2019-04-16T01:31:10.649Z,0
2019-04-16T01:32:13.508Z,0
2019-04-16T01:33:16.624Z,0
2019-04-16T01:34:19.861Z,0
2019-04-16T01:35:22.271Z,0
2019-04-16T01:36:25.045Z,0
2019-04-16T01:37:27.854Z,0
2019-04-16T01:38:30.006Z,0
2019-04-16T01:39:32.144Z,0
2019-04-16T01:40:34.331Z,0
2019-04-16T01:41:36.717Z,0
2019-04-16T01:42:38.829Z,0
2019-04-16T01:43:40.951Z,0
2019-04-16T01:44:43.039Z,0
2019-04-16T01:45:45.163Z,0
2019-04-16T01:46:47.557Z,0
2019-04-16T01:47:49.684Z,0
2019-04-16T01:48:51.777Z,0
2019-04-16T01:49:53.910Z,0
2019-04-16T01:50:56.020Z,0
2019-04-16T01:51:58.523Z,0
2019-04-16T01:53:00.781Z,0
2019-04-16T01:54:03.060Z,0
2019-04-16T01:55:05.395Z,0
2019-04-16T01:56:07.958Z,0
2019-04-16T01:57:10.480Z,0
2019-04-16T01:58:12.584Z,0
2019-04-16T01:59:14.710Z,0
2019-04-16T02:00:16.811Z,0
2019-04-16T02:01:19.672Z,0
2019-04-16T02:02:21.806Z,0
2019-04-16T02:03:23.998Z,0
2019-04-16T02:04:26.115Z,0
2019-04-16T02:05:28.247Z,0
2019-04-16T02:06:30.351Z,0
2019-04-16T02:07:32.460Z,0
2019-04-16T02:08:34.596Z,0
2019-04-16T02:09:37.341Z,0
2019-04-16T02:10:41.079Z,0
2019-04-16T02:11:43.496Z,0
2019-04-16T02:12:45.858Z,0
2019-04-16T02:13:48.303Z,0
2019-04-16T02:14:52.356Z,0
2019-04-16T02:15:55.653Z,0
2019-04-16T02:16:58.023Z,0
2019-04-16T02:18:01.480Z,0
2019-04-16T02:19:04.174Z,0
2019-04-16T02:20:08.987Z,0
2019-04-16T02:21:12.587Z,0
2019-04-16T02:22:15.448Z,0
2019-04-16T02:23:19.017Z,0
2019-04-16T02:24:21.137Z,0
2019-04-16T02:25:23.554Z,0
2019-04-16T02:26:25.688Z,0
2019-04-16T02:27:28.380Z,0
2019-04-16T02:28:30.502Z,0
2019-04-16T02:29:32.639Z,0
2019-04-16T02:30:41.635Z,0
2019-04-16T02:31:43.784Z,0
2019-04-16T02:32:46.244Z,0
2019-04-16T02:33:48.358Z,0
2019-04-16T02:34:52.124Z,0
2019-04-16T02:35:54.322Z,0
2019-04-16T02:37:04.887Z,0
2019-04-16T02:38:15.219Z,0
2019-04-16T02:39:17.735Z,0
2019-04-16T02:40:20.703Z,0
2019-04-16T02:41:25.877Z,0
2019-04-16T02:42:33.318Z,0
2019-04-16T02:43:42.396Z,0
2019-04-16T02:44:51.525Z,0
2019-04-16T02:46:00.279Z,0
2019-04-16T02:47:10.525Z,0
2019-04-16T02:48:18.374Z,0
2019-04-16T02:49:26.405Z,0
2019-04-16T02:50:33.452Z,0
2019-04-16T02:51:42.788Z,0
2019-04-16T02:52:54.141Z,0
2019-04-16T02:54:01.811Z,0
2019-04-16T02:55:12.681Z,0
2019-04-16T02:56:20.513Z,0
2019-04-16T02:57:29.306Z,0
2019-04-16T02:58:36.465Z,0
2019-04-16T02:59:47.818Z,0
2019-04-16T03:00:51.932Z,0
2019-04-16T03:01:54.066Z,0
2019-04-16T03:02:56.167Z,0
2019-04-16T03:03:58.283Z,0
2019-04-16T03:05:00.414Z,0
2019-04-16T03:06:03.255Z,0
2019-04-16T03:07:06.804Z,0
2019-04-16T03:08:09.336Z,0
2019-04-16T03:09:12.080Z,0
2019-04-16T03:10:15.505Z,0
2019-04-16T03:11:20.017Z,0
2019-04-16T03:12:23.251Z,0
2019-04-16T03:13:25.391Z,0
2019-04-16T03:14:32.610Z,0
2019-04-16T03:15:35.142Z,0
2019-04-16T03:16:40.162Z,0
2019-04-16T03:17:44.908Z,0
2019-04-16T03:18:49.542Z,0
2019-04-16T03:19:53.529Z,0
2019-04-16T03:20:58.112Z,0
2019-04-16T03:22:05.029Z,0
2019-04-16T03:23:08.266Z,0
2019-04-16T03:24:12.154Z,0
2019-04-16T03:25:16.091Z,0
2019-04-16T03:26:19.502Z,0
2019-04-16T03:27:24.195Z,0
2019-04-16T03:28:29.622Z,0
2019-04-16T03:29:32.575Z,0
2019-04-16T03:30:43.961Z,0
2019-04-16T03:31:46.402Z,0
2019-04-16T03:32:48.829Z,0
2019-04-16T03:33:52.758Z,0
2019-04-16T03:34:55.480Z,0
2019-04-16T03:35:59.753Z,0
2019-04-16T03:37:04.976Z,0
2019-04-16T03:38:08.267Z,0
2019-04-16T03:39:15.393Z,0
2019-04-16T03:40:26.983Z,0
2019-04-16T03:41:29.100Z,0
2019-04-16T03:42:31.202Z,0
2019-04-16T03:43:34.369Z,0
2019-04-16T03:44:38.709Z,0
2019-04-16T03:45:42.267Z,0
2019-04-16T03:46:48.786Z,0
2019-04-16T03:47:53.562Z,0
2019-04-16T03:48:57.628Z,0
2019-04-16T03:50:01.784Z,0
2019-04-16T03:51:06.438Z,0
2019-04-16T03:52:11.076Z,0
2019-04-16T03:53:19.394Z,0
2019-04-16T03:54:24.334Z,0
2019-04-16T03:55:27.975Z,0
2019-04-16T03:56:32.477Z,0
2019-04-16T03:57:35.250Z,0
2019-04-16T03:58:40.505Z,0
2019-04-16T03:59:42.629Z,0
2019-04-16T04:00:46.257Z,0
2019-04-16T04:01:48.365Z,0
2019-04-16T04:02:56.730Z,0
2019-04-16T04:04:00.221Z,0
2019-04-16T04:05:08.704Z,0
2019-04-16T04:06:10.817Z,0
2019-04-16T04:07:14.913Z,0
2019-04-16T04:08:19.467Z,0
2019-04-16T04:09:24.064Z,0
2019-04-16T04:10:39.109Z,1
2019-04-16T04:11:43.817Z,1
2019-04-16T04:12:47.770Z,1
2019-04-16T04:13:52.099Z,1
2019-04-16T04:14:56.344Z,1
2019-04-16T04:16:03.356Z,1
2019-04-16T04:17:08.671Z,1
2019-04-16T04:18:14.405Z,1
2019-04-16T04:19:17.514Z,2
2019-04-16T04:20:20.876Z,2
2019-04-16T04:21:24.096Z,2
2019-04-16T04:22:27.832Z,2
2019-04-16T04:23:30.795Z,2
2019-04-16T04:24:33.531Z,2
2019-04-16T04:25:38.513Z,3
2019-04-16T04:26:43.966Z,3
2019-04-16T04:27:49.205Z,3
2019-04-16T04:28:53.821Z,3
2019-04-16T04:29:58.535Z,3
2019-04-16T04:31:03.377Z,4
2019-04-16T04:32:05.751Z,4
2019-04-16T04:33:11.892Z,4
2019-04-16T04:34:19.314Z,4
2019-04-16T04:35:24.236Z,4
2019-04-16T04:36:30.326Z,5
2019-04-16T04:37:33.755Z,5
2019-04-16T04:38:40.398Z,5
2019-04-16T04:39:46.340Z,5
2019-04-16T04:40:53.436Z,5
2019-04-16T04:41:58.453Z,6
2019-04-16T04:43:03.339Z,6
2019-04-16T04:44:06.909Z,6
2019-04-16T04:45:11.834Z,6
2019-04-16T04:46:17.096Z,6
2019-04-16T04:47:21.529Z,7
2019-04-16T04:48:25.490Z,7
2019-04-16T04:49:32.263Z,7
2019-04-16T04:50:37.512Z,8
2019-04-16T04:51:45.050Z,8
2019-04-16T04:52:48.392Z,8
2019-04-16T04:53:52.884Z,8
2019-04-16T04:54:56.120Z,8
2019-04-16T04:55:59.055Z,9
2019-04-16T04:57:01.588Z,9
2019-04-16T04:58:04.651Z,9
2019-04-16T04:59:07.664Z,10
2019-04-16T05:00:11.606Z,11
2019-04-16T05:01:16.078Z,11
2019-04-16T05:02:18.278Z,11
2019-04-16T05:03:20.575Z,11
2019-04-16T05:04:22.727Z,11
2019-04-16T05:05:27.373Z,11
2019-04-16T05:06:29.546Z,12
2019-04-16T05:07:31.646Z,11
2019-04-16T05:08:33.762Z,11
2019-04-16T05:09:38.041Z,12
2019-04-16T05:11:03.970Z,12
2019-04-16T05:12:10.014Z,13
2019-04-16T05:13:12.264Z,13
2019-04-16T05:14:14.859Z,13
2019-04-16T05:15:17.173Z,13
2019-04-16T05:16:19.295Z,13
2019-04-16T05:17:21.716Z,13
2019-04-16T05:18:23.827Z,14
2019-04-16T05:19:25.963Z,13
2019-04-16T05:20:31.556Z,14
2019-04-16T05:21:34.015Z,14
2019-04-16T05:22:36.149Z,15
2019-04-16T05:23:39.120Z,15
2019-04-16T05:24:41.611Z,15
2019-04-16T05:25:43.726Z,16
2019-04-16T05:26:45.829Z,15
2019-04-16T05:27:47.952Z,15
2019-04-16T05:28:50.077Z,17
2019-04-16T05:29:52.205Z,16
2019-04-16T05:30:54.515Z,18
2019-04-16T05:31:59.523Z,16
2019-04-16T05:33:07.694Z,17
2019-04-16T05:34:09.809Z,19
2019-04-16T05:35:12.730Z,18
2019-04-16T05:36:16.893Z,18
2019-04-16T05:37:22.213Z,18
2019-04-16T05:38:25.916Z,18
2019-04-16T05:39:29.753Z,17
2019-04-16T05:40:36.590Z,19
2019-04-16T05:41:39.352Z,19
2019-04-16T05:42:41.743Z,18
2019-04-16T05:43:44.157Z,18
2019-04-16T05:44:46.253Z,19
2019-04-16T05:45:48.376Z,19
2019-04-16T05:46:50.485Z,18
2019-04-16T05:47:52.617Z,18
2019-04-16T05:48:55.785Z,19
2019-04-16T05:49:59.927Z,19
2019-04-16T05:51:02.065Z,19
2019-04-16T05:52:05.707Z,19
2019-04-16T05:53:14.486Z,19
2019-04-16T05:54:16.835Z,20
2019-04-16T05:55:20.929Z,20
2019-04-16T05:56:26.386Z,20
2019-04-16T05:57:28.982Z,20
2019-04-16T05:58:32.725Z,20
2019-04-16T05:59:36.079Z,20
2019-04-16T06:00:43.374Z,21
2019-04-16T06:01:47.373Z,21
2019-04-16T06:02:52.316Z,21
2019-04-16T06:03:55.494Z,21
2019-04-16T06:04:57.904Z,21
2019-04-16T06:06:01.516Z,22
2019-04-16T06:07:08.926Z,22
2019-04-16T06:08:11.667Z,22
2019-04-16T06:09:15.012Z,22
2019-04-16T06:10:20.875Z,22
2019-04-16T06:11:37.965Z,22
2019-04-16T06:12:41.935Z,23
2019-04-16T06:13:46.800Z,23
2019-04-16T06:14:55.271Z,23
2019-04-16T06:15:57.391Z,23
2019-04-16T06:16:59.802Z,24
2019-04-16T06:18:07.243Z,24
2019-04-16T06:19:13.287Z,24
2019-04-16T06:20:22.824Z,24
2019-04-16T06:21:28.143Z,25
2019-04-16T06:22:31.496Z,25
2019-04-16T06:23:34.101Z,25
2019-04-16T06:24:40.534Z,25
2019-04-16T06:25:43.771Z,25
2019-04-16T06:26:49.571Z,25
2019-04-16T06:27:52.051Z,26
2019-04-16T06:29:01.285Z,26
2019-04-16T06:30:04.060Z,26
2019-04-16T06:31:11.385Z,26
2019-04-16T06:32:13.566Z,26
2019-04-16T06:33:16.192Z,27
2019-04-16T06:34:18.322Z,27
2019-04-16T06:35:20.723Z,27
2019-04-16T06:36:23.046Z,27
2019-04-16T06:37:29.065Z,27
2019-04-16T06:38:31.174Z,28
2019-04-16T06:39:33.309Z,28
2019-04-16T06:40:35.415Z,28
2019-04-16T06:41:53.064Z,28
2019-04-16T06:42:56.049Z,29
2019-04-16T06:44:04.336Z,29
2019-04-16T06:45:07.492Z,29
2019-04-16T06:46:11.063Z,29
2019-04-16T06:47:13.191Z,30
2019-04-16T06:48:15.423Z,30
2019-04-16T06:49:20.522Z,30
2019-04-16T06:50:42.059Z,30
2019-04-16T06:51:46.210Z,31
2019-04-16T06:52:51.055Z,31
2019-04-16T06:53:58.871Z,31
2019-04-16T06:55:05.410Z,31
2019-04-16T06:56:10.692Z,31
2019-04-16T06:57:14.381Z,32
2019-04-16T06:58:19.672Z,32
2019-04-16T06:59:22.422Z,32
2019-04-16T07:00:24.688Z,32
2019-04-16T07:01:27.053Z,32
2019-04-16T07:02:29.162Z,33
2019-04-16T07:03:33.958Z,33
2019-04-16T07:04:36.413Z,33
2019-04-16T07:05:38.527Z,33
2019-04-16T07:06:44.389Z,33
2019-04-16T07:07:48.209Z,34
2019-04-16T07:08:51.966Z,34
2019-04-16T07:09:58.852Z,34
2019-04-16T07:11:01.738Z,34
2019-04-16T07:12:04.148Z,35
2019-04-16T07:13:12.520Z,35
2019-04-16T07:14:18.507Z,35
2019-04-16T07:15:30.811Z,36
2019-04-16T07:16:33.250Z,36
2019-04-16T07:17:35.899Z,36
2019-04-16T07:18:40.432Z,36
2019-04-16T07:19:44.206Z,36
2019-04-16T07:20:48.081Z,37
2019-04-16T07:21:51.316Z,37
2019-04-16T07:22:54.762Z,37
2019-04-16T07:24:00.607Z,37
2019-04-16T07:25:08.998Z,37
2019-04-16T07:26:17.307Z,37
2019-04-16T07:27:23.544Z,38
2019-04-16T07:28:28.723Z,38
2019-04-16T07:29:35.319Z,38
2019-04-16T07:30:42.785Z,39
2019-04-16T07:31:45.738Z,39
2019-04-16T07:32:47.869Z,39
2019-04-16T07:33:49.997Z,39
2019-04-16T07:34:52.128Z,39
2019-04-16T07:35:54.265Z,40
2019-04-16T07:37:03.497Z,40
2019-04-16T07:38:12.499Z,40
2019-04-16T07:39:31.295Z,40
2019-04-16T07:40:33.494Z,41
2019-04-16T07:41:35.627Z,42
2019-04-16T07:43:00.515Z,41
2019-04-16T07:44:12.632Z,42
2019-04-16T07:45:14.776Z,42
2019-04-16T07:46:16.888Z,43
2019-04-16T07:47:21.921Z,43
2019-04-16T07:48:24.910Z,44
2019-04-16T07:49:28.350Z,44
2019-04-16T07:50:34.414Z,45
2019-04-16T07:51:37.894Z,45
2019-04-16T07:52:43.790Z,46
2019-04-16T07:53:49.200Z,45
2019-04-16T07:54:51.327Z,45
2019-04-16T07:55:53.438Z,45
2019-04-16T07:56:56.343Z,50
2019-04-16T07:57:58.731Z,127
2019-04-16T07:59:04.215Z,232
2019-04-16T08:00:11.278Z,251
2019-04-16T08:01:17.678Z,264
2019-04-16T08:02:23.605Z,277
2019-04-16T08:03:28.930Z,271
2019-04-16T08:04:37.995Z,269
2019-04-16T08:05:43.105Z,266
2019-04-16T08:06:48.582Z,257
2019-04-16T08:07:54.789Z,275
2019-04-16T08:08:59.918Z,284
2019-04-16T08:10:04.839Z,283
2019-04-16T08:11:07.284Z,289
2019-04-16T08:12:32.137Z,291
2019-04-16T08:13:35.944Z,293
2019-04-16T08:14:38.354Z,284
2019-04-16T08:15:40.468Z,299
2019-04-16T08:16:49.407Z,311
2019-04-16T08:17:51.816Z,309
2019-04-16T08:18:53.949Z,301
2019-04-16T08:19:57.897Z,285
2019-04-16T08:21:14.097Z,290
2019-04-16T08:22:18.634Z,330
2019-04-16T08:23:22.326Z,322
2019-04-16T08:24:26.710Z,307
2019-04-16T08:25:36.073Z,340
2019-04-16T08:26:38.211Z,324
2019-04-16T08:27:40.349Z,302
2019-04-16T08:28:42.474Z,296
2019-04-16T08:29:44.983Z,304
2019-04-16T08:30:47.123Z,314
2019-04-16T08:31:49.250Z,308
2019-04-16T08:32:51.397Z,308
2019-04-16T08:33:53.537Z,315
2019-04-16T08:34:55.652Z,329
2019-04-16T08:35:58.014Z,334
2019-04-16T08:37:00.439Z,313
2019-04-16T08:38:03.331Z,308
2019-04-16T08:39:09.024Z,310
2019-04-16T08:40:14.595Z,315
2019-04-16T08:41:22.789Z,317
2019-04-16T08:42:46.733Z,321
2019-04-16T08:43:48.877Z,336
2019-04-16T08:44:51.020Z,330
2019-04-16T08:45:53.527Z,314
2019-04-16T08:46:59.949Z,316
2019-04-16T08:48:02.604Z,309
2019-04-16T08:49:04.981Z,302
2019-04-16T08:50:07.284Z,304
2019-04-16T08:51:09.627Z,302
2019-04-16T08:52:12.642Z,326
2019-04-16T08:53:15.719Z,341
2019-04-16T08:54:20.338Z,334
2019-04-16T08:55:25.431Z,325
2019-04-16T08:56:27.568Z,331
2019-04-16T08:57:34.262Z,331
2019-04-16T08:58:40.162Z,337
2019-04-16T08:59:44.531Z,330
2019-04-16T09:00:49.646Z,321
2019-04-16T09:01:56.410Z,330
2019-04-16T09:03:00.535Z,352
2019-04-16T09:04:04.436Z,352
2019-04-16T09:05:13.675Z,352
2019-04-16T09:06:15.814Z,348
2019-04-16T09:07:21.925Z,358
2019-04-16T09:08:24.102Z,353
2019-04-16T09:09:27.319Z,333
2019-04-16T09:10:32.303Z,320
2019-04-16T09:11:37.722Z,326
2019-04-16T09:13:06.861Z,346
2019-04-16T09:14:09.966Z,347
2019-04-16T09:15:12.648Z,335
2019-04-16T09:16:14.770Z,329
2019-04-16T09:17:16.909Z,324
2019-04-16T09:18:19.036Z,336
2019-04-16T09:19:21.178Z,338
2019-04-16T09:20:24.698Z,333
2019-04-16T09:21:29.429Z,337
2019-04-16T09:22:31.590Z,345
2019-04-16T09:23:33.746Z,362
2019-04-16T09:24:42.815Z,396
2019-04-16T09:25:48.237Z,362
2019-04-16T09:26:57.307Z,354
2019-04-16T09:28:17.803Z,349
2019-04-16T09:29:25.940Z,354
2019-04-16T09:30:28.513Z,363
2019-04-16T09:31:30.961Z,353
2019-04-16T09:32:33.136Z,346
2019-04-16T09:33:36.134Z,339
2019-04-16T09:34:41.590Z,328
2019-04-16T09:35:46.420Z,339
2019-04-16T09:36:48.549Z,347
2019-04-16T09:37:50.711Z,339
2019-04-16T09:38:53.263Z,352
2019-04-16T09:39:55.717Z,355
2019-04-16T09:40:57.858Z,352
2019-04-16T09:42:00.290Z,349
2019-04-16T09:43:19.362Z,350
2019-04-16T09:44:21.725Z,334
2019-04-16T09:45:26.558Z,338
2019-04-16T09:46:53.460Z,361
2019-04-16T09:47:55.617Z,365
2019-04-16T09:48:58.022Z,361
2019-04-16T09:50:00.166Z,359
2019-04-16T09:51:03.383Z,351
2019-04-16T09:52:05.882Z,362
2019-04-16T09:53:08.008Z,365
2019-04-16T09:54:15.566Z,375
2019-04-16T09:55:21.122Z,372
2019-04-16T09:56:31.884Z,352
2019-04-16T09:57:34.395Z,358
2019-04-16T09:58:43.714Z,382
2019-04-16T09:59:49.962Z,384
2019-04-16T10:00:52.419Z,364
2019-04-16T10:01:54.581Z,344
2019-04-16T10:02:56.728Z,343
2019-04-16T10:03:58.933Z,337
2019-04-16T10:05:01.082Z,335
2019-04-16T10:06:07.470Z,350
2019-04-16T10:07:09.959Z,372
2019-04-16T10:08:15.256Z,375
2019-04-16T10:09:24.175Z,375
2019-04-16T10:10:30.314Z,357
2019-04-16T10:11:37.568Z,339
2019-04-16T10:12:39.744Z,350
2019-04-16T10:13:42.233Z,360
2019-04-16T10:14:44.722Z,375
2019-04-16T10:15:46.892Z,374
2019-04-16T10:16:49.151Z,361
2019-04-16T10:17:51.335Z,349
2019-04-16T10:18:53.489Z,337
2019-04-16T10:19:55.688Z,336
2019-04-16T10:20:57.859Z,358
2019-04-16T10:22:00.070Z,363
2019-04-16T10:23:02.262Z,346
2019-04-16T10:24:04.509Z,331
2019-04-16T10:25:07.122Z,320
2019-04-16T10:26:09.651Z,324
2019-04-16T10:27:12.776Z,332
2019-04-16T10:28:15.150Z,354
2019-04-16T10:29:17.849Z,374
2019-04-16T10:30:20.407Z,389
2019-04-16T10:31:22.875Z,374
2019-04-16T10:32:25.118Z,344
2019-04-16T10:33:27.388Z,340
2019-04-16T10:34:30.001Z,335
2019-04-16T10:35:32.164Z,335
2019-04-16T10:36:39.719Z,344
2019-04-16T10:37:42.015Z,371
2019-04-16T10:38:44.297Z,89
2019-04-16T10:39:46.577Z,391
2019-04-16T10:40:48.781Z,416
2019-04-16T10:41:51.000Z,403
2019-04-16T10:42:53.261Z,386
2019-04-16T10:43:55.771Z,387
2019-04-16T10:44:58.557Z,347
2019-04-16T10:46:01.208Z,355
2019-04-16T10:47:03.469Z,365
2019-04-16T10:48:06.134Z,372
2019-04-16T10:49:08.693Z,362
2019-04-16T10:50:11.486Z,360
2019-04-16T10:51:17.731Z,364
2019-04-16T10:52:23.852Z,365
2019-04-16T10:53:26.099Z,388
2019-04-16T10:54:28.881Z,390
2019-04-16T10:55:31.163Z,368
2019-04-16T10:56:33.976Z,364
2019-04-16T10:57:39.844Z,362
2019-04-16T10:58:42.144Z,336
2019-04-16T10:59:44.381Z,342
2019-04-16T11:00:46.690Z,357
2019-04-16T11:01:49.587Z,371
2019-04-16T11:02:53.142Z,399
2019-04-16T11:03:55.454Z,375
2019-04-16T11:04:58.120Z,395
2019-04-16T11:06:00.683Z,377
2019-04-16T11:07:03.061Z,378
2019-04-16T11:08:09.419Z,383
2019-04-16T11:09:12.250Z,365
2019-04-16T11:10:14.522Z,332
2019-04-16T11:11:16.788Z,302
2019-04-16T11:12:21.658Z,144
2019-04-16T11:13:23.937Z,124
2019-04-16T11:14:26.199Z,119
2019-04-16T11:15:28.707Z,359
2019-04-16T11:16:31.187Z,347
2019-04-16T11:17:33.732Z,338
2019-04-16T11:18:36.396Z,350
2019-04-16T11:19:38.659Z,346
2019-04-16T11:20:41.320Z,345
2019-04-16T11:21:43.615Z,350
2019-04-16T11:22:46.224Z,355
2019-04-16T11:23:49.406Z,343
2019-04-16T11:24:52.740Z,368
2019-04-16T11:25:55.196Z,375
2019-04-16T11:26:57.340Z,368
2019-04-16T11:27:59.844Z,359
2019-04-16T11:29:02.850Z,354
2019-04-16T11:30:05.234Z,350
2019-04-16T11:31:07.488Z,337
2019-04-16T11:32:10.231Z,330
2019-04-16T11:33:12.974Z,346
2019-04-16T11:34:15.432Z,348
2019-04-16T11:35:24.258Z,334
2019-04-16T11:36:33.702Z,217
2019-04-16T11:37:37.874Z,113
2019-04-16T11:38:40.454Z,126
2019-04-16T11:39:42.712Z,319
2019-04-16T11:40:45.024Z,319
2019-04-16T11:41:47.630Z,309
2019-04-16T11:42:49.878Z,309
2019-04-16T11:43:52.153Z,335
2019-04-16T11:44:54.399Z,345
2019-04-16T11:45:56.630Z,348
2019-04-16T11:46:58.914Z,330
2019-04-16T11:48:01.464Z,321
2019-04-16T11:49:04.188Z,314
2019-04-16T11:50:06.338Z,327
2019-04-16T11:51:09.178Z,348
2019-04-16T11:52:11.972Z,357
2019-04-16T11:53:14.869Z,64
2019-04-16T11:54:17.680Z,111
2019-04-16T11:55:19.996Z,338
2019-04-16T11:56:24.572Z,329
2019-04-16T11:57:34.332Z,270
2019-04-16T11:58:37.028Z,333
2019-04-16T11:59:39.914Z,324
2019-04-16T12:00:42.472Z,276
2019-04-16T12:01:44.782Z,340
2019-04-16T12:02:47.381Z,337
2019-04-16T12:03:49.636Z,344
2019-04-16T12:05:00.156Z,333
2019-04-16T12:06:02.976Z,304
2019-04-16T12:07:07.997Z,318
2019-04-16T12:08:10.490Z,322
2019-04-16T12:09:12.962Z,310
2019-04-16T12:10:15.493Z,309
2019-04-16T12:11:17.766Z,320
2019-04-16T12:12:20.088Z,325
2019-04-16T12:13:22.426Z,347
2019-04-16T12:14:43.987Z,358
2019-04-16T12:15:46.282Z,357
2019-04-16T12:16:48.630Z,359
2019-04-16T12:17:50.858Z,353
2019-04-16T12:18:53.065Z,344
2019-04-16T12:19:56.086Z,352
2019-04-16T12:20:58.471Z,329
2019-04-16T12:22:00.813Z,322
2019-04-16T12:23:03.547Z,324
2019-04-16T12:24:06.394Z,326
2019-04-16T12:25:09.049Z,333
2019-04-16T12:26:11.918Z,324
2019-04-16T12:27:14.780Z,302
2019-04-16T12:28:17.113Z,296
2019-04-16T12:29:23.954Z,310
2019-04-16T12:30:26.647Z,82
2019-04-16T12:31:29.301Z,288
2019-04-16T12:32:31.648Z,298
2019-04-16T12:33:33.912Z,287
2019-04-16T12:34:36.521Z,291
2019-04-16T12:35:39.347Z,286
2019-04-16T12:36:41.665Z,277
2019-04-16T12:37:44.070Z,275
2019-04-16T12:38:46.478Z,280
2019-04-16T12:39:48.948Z,291
2019-04-16T12:40:51.345Z,296
2019-04-16T12:41:53.889Z,287
2019-04-16T12:42:56.309Z,290
2019-04-16T12:43:59.009Z,277
2019-04-16T12:45:02.660Z,277
2019-04-16T12:46:05.362Z,282
2019-04-16T12:47:08.116Z,285
2019-04-16T12:48:11.162Z,281
2019-04-16T12:49:13.554Z,267
2019-04-16T12:50:18.946Z,276
2019-04-16T12:51:21.321Z,285
2019-04-16T12:52:25.264Z,286
2019-04-16T12:53:27.691Z,284
2019-04-16T12:54:30.051Z,273
2019-04-16T12:55:34.038Z,261
2019-04-16T12:56:42.745Z,103
2019-04-16T12:57:49.339Z,238
2019-04-16T12:58:52.585Z,248
2019-04-16T12:59:57.231Z,260
2019-04-16T13:01:06.060Z,266
2019-04-16T13:02:15.340Z,195
2019-04-16T13:03:19.520Z,269
2019-04-16T13:04:21.656Z,262
2019-04-16T13:05:24.097Z,259
2019-04-16T13:06:28.591Z,253
2019-04-16T13:07:30.723Z,255
2019-04-16T13:08:32.862Z,250
2019-04-16T13:09:35.010Z,251
2019-04-16T13:10:37.216Z,263
2019-04-16T13:11:39.373Z,253
2019-04-16T13:12:41.536Z,245
2019-04-16T13:13:43.681Z,263
2019-04-16T13:15:03.351Z,274
2019-04-16T13:16:05.604Z,262
2019-04-16T13:17:07.731Z,256
2019-04-16T13:18:09.992Z,251
2019-04-16T13:19:12.525Z,241
2019-04-16T13:20:14.678Z,242
2019-04-16T13:21:16.826Z,229
2019-04-16T13:22:18.976Z,239
2019-04-16T13:23:21.112Z,234
2019-04-16T13:24:23.239Z,240
2019-04-16T13:25:25.669Z,215
2019-04-16T13:26:27.823Z,218
2019-04-16T13:27:30.401Z,239
2019-04-16T13:28:32.534Z,233
2019-04-16T13:29:34.721Z,235
2019-04-16T13:30:37.160Z,226
2019-04-16T13:31:41.035Z,230
2019-04-16T13:32:43.223Z,248
2019-04-16T13:33:51.738Z,188
2019-04-16T13:34:53.879Z,159
2019-04-16T13:35:56.037Z,171
2019-04-16T13:37:02.429Z,240
2019-04-16T13:38:11.500Z,193
2019-04-16T13:39:13.627Z,238
2019-04-16T13:40:15.792Z,215
2019-04-16T13:41:17.918Z,194
2019-04-16T13:42:20.337Z,238
2019-04-16T13:43:22.482Z,146
2019-04-16T13:44:24.613Z,242
2019-04-16T13:45:29.333Z,226
2019-04-16T13:46:35.379Z,175
2019-04-16T13:47:37.544Z,170
2019-04-16T13:48:44.154Z,217
2019-04-16T13:49:46.393Z,195
2019-04-16T13:50:48.597Z,225
2019-04-16T13:51:50.747Z,221
2019-04-16T13:52:56.923Z,232
2019-04-16T13:54:03.590Z,221
2019-04-16T13:55:11.889Z,195
2019-04-16T13:56:19.835Z,182
2019-04-16T13:57:22.086Z,187
2019-04-16T13:58:24.210Z,201
2019-04-16T13:59:33.356Z,181
2019-04-16T14:00:38.518Z,193
2019-04-16T14:01:47.282Z,197
2019-04-16T14:02:53.635Z,207
2019-04-16T14:03:58.285Z,213
2019-04-16T14:05:12.193Z,211
2019-04-16T14:06:14.646Z,208
2019-04-16T14:07:16.786Z,213
2019-04-16T14:08:19.311Z,202
2019-04-16T14:09:21.457Z,174
2019-04-16T14:10:23.889Z,197
2019-04-16T14:11:26.042Z,205
2019-04-16T14:12:44.297Z,205
2019-04-16T14:13:51.480Z,192
2019-04-16T14:14:53.615Z,198
2019-04-16T14:15:55.765Z,194
2019-04-16T14:17:07.821Z,192
2019-04-16T14:18:11.107Z,187
2019-04-16T14:19:13.264Z,186
2019-04-16T14:20:15.675Z,193
2019-04-16T14:21:17.812Z,200
2019-04-16T14:22:23.666Z,195
2019-04-16T14:23:25.818Z,193
2019-04-16T14:24:27.954Z,182
2019-04-16T14:25:30.105Z,176
2019-04-16T14:26:32.258Z,175
2019-04-16T14:27:34.679Z,172
2019-04-16T14:28:57.325Z,171
2019-04-16T14:30:01.344Z,161
2019-04-16T14:31:04.109Z,163
2019-04-16T14:32:06.550Z,168
2019-04-16T14:33:09.203Z,161
2019-04-16T14:34:11.427Z,165
2019-04-16T14:35:13.932Z,158
2019-04-16T14:36:16.355Z,148
2019-04-16T14:37:18.578Z,156
2019-04-16T14:38:20.723Z,162
2019-04-16T14:39:22.869Z,160
2019-04-16T14:40:25.013Z,159
2019-04-16T14:41:27.163Z,160
2019-04-16T14:42:29.327Z,153
2019-04-16T14:43:31.779Z,158
2019-04-16T14:44:36.490Z,158
2019-04-16T14:46:01.712Z,153
2019-04-16T14:47:04.438Z,155
2019-04-16T14:48:12.190Z,148
2019-04-16T14:49:20.120Z,148
2019-04-16T14:50:25.753Z,142
2019-04-16T14:51:27.918Z,149
2019-04-16T14:52:30.051Z,147
2019-04-16T14:53:32.212Z,147
2019-04-16T14:54:34.644Z,147
2019-04-16T14:55:36.784Z,146
2019-04-16T14:56:38.920Z,146
2019-04-16T14:57:44.255Z,142
2019-04-16T14:58:46.782Z,142
2019-04-16T14:59:48.924Z,143
2019-04-16T15:00:51.667Z,139
2019-04-16T15:01:53.790Z,136
2019-04-16T15:02:55.939Z,136
2019-04-16T15:03:58.437Z,137
2019-04-16T15:05:00.576Z,138
2019-04-16T15:06:02.717Z,138
2019-04-16T15:07:04.879Z,137
2019-04-16T15:08:07.258Z,137
2019-04-16T15:09:10.125Z,138